sensor_id;sensor_type;location;lat;lon;timestamp;P1;durP1;ratioP1;P2;durP2;ratioP2
72635;SDS011;60679;48.888;15.544;2022-12-07T00:01:12;2.10;;;0.40;;
72635;SDS011;60679;48.888;15.544;2022-12-07T00:03:39;2.20;;;0.40;;
72635;SDS011;60679;48.888;15.544;2022-12-07T00:06:07;1.95;;;0.30;;
72635;SDS011;60679;48.888;15.544;2022-12-07T00:08:34;1.92;;;0.38;;
72635;SDS011;60679;48.888;15.544;2022-12-07T00:11:04;2.08;;;0.47;;
72635;SDS011;60679;48.888;15.544;2022-12-07T00:13:30;1.73;;;0.30;;
72635;SDS011;60679;48.888;15.544;2022-12-07T00:15:59;1.77;;;0.30;;
72635;SDS011;60679;48.888;15.544;2022-12-07T00:18:28;1.90;;;0.30;;
72635;SDS011;60679;48.888;15.544;2022-12-07T00:20:58;3.03;;;0.90;;
72635;SDS011;60679;48.888;15.544;2022-12-07T00:23:34;2.35;;;0.40;;
72635;SDS011;60679;48.888;15.544;2022-12-07T00:26:42;2.53;;;0.80;;
72635;SDS011;60679;48.888;15.544;2022-12-07T00:28:50;1.90;;;0.40;;
72635;SDS011;60679;48.888;15.544;2022-12-07T00:31:18;1.88;;;0.40;;
72635;SDS011;60679;48.888;15.544;2022-12-07T00:33:45;2.35;;;0.45;;
72635;SDS011;60679;48.888;15.544;2022-12-07T00:36:15;1.87;;;0.30;;
72635;SDS011;60679;48.888;15.544;2022-12-07T00:38:43;1.95;;;0.45;;
72635;SDS011;60679;48.888;15.544;2022-12-07T00:41:15;3.15;;;1.63;;
72635;SDS011;60679;48.888;15.544;2022-12-07T00:43:42;2.13;;;0.47;;
72635;SDS011;60679;48.888;15.544;2022-12-07T00:46:09;2.00;;;0.40;;
72635;SDS011;60679;48.888;15.544;2022-12-07T00:48:35;2.08;;;0.40;;
72635;SDS011;60679;48.888;15.544;2022-12-07T00:51:01;1.70;;;0.30;;
72635;SDS011;60679;48.888;15.544;2022-12-07T00:53:27;1.70;;;0.30;;
72635;SDS011;60679;48.888;15.544;2022-12-07T00:55:55;2.20;;;0.50;;
72635;SDS011;60679;48.888;15.544;2022-12-07T00:58:22;2.92;;;1.10;;
72635;SDS011;60679;48.888;15.544;2022-12-07T01:00:49;1.75;;;0.30;;
72635;SDS011;60679;48.888;15.544;2022-12-07T01:03:15;1.98;;;0.60;;
72635;SDS011;60679;48.888;15.544;2022-12-07T01:05:48;4.70;;;2.05;;
72635;SDS011;60679;48.888;15.544;2022-12-07T01:08:15;2.05;;;0.43;;
72635;SDS011;60679;48.888;15.544;2022-12-07T01:10:41;2.77;;;0.37;;
72635;SDS011;60679;48.888;15.544;2022-12-07T01:13:06;1.70;;;0.30;;
72635;SDS011;60679;48.888;15.544;2022-12-07T01:15:31;3.10;;;0.90;;
72635;SDS011;60679;48.888;15.544;2022-12-07T01:17:57;2.07;;;0.50;;
72635;SDS011;60679;48.888;15.544;2022-12-07T01:20:22;1.83;;;0.30;;
72635;SDS011;60679;48.888;15.544;2022-12-07T01:22:47;2.22;;;0.50;;
72635;SDS011;60679;48.888;15.544;2022-12-07T01:25:13;1.90;;;0.30;;
72635;SDS011;60679;48.888;15.544;2022-12-07T01:27:38;1.60;;;0.27;;
72635;SDS011;60679;48.888;15.544;2022-12-07T01:30:04;2.10;;;0.40;;
72635;SDS011;60679;48.888;15.544;2022-12-07T01:32:32;2.40;;;0.70;;
72635;SDS011;60679;48.888;15.544;2022-12-07T01:34:57;2.20;;;0.40;;
72635;SDS011;60679;48.888;15.544;2022-12-07T01:37:23;1.90;;;0.40;;
72635;SDS011;60679;48.888;15.544;2022-12-07T01:39:49;1.77;;;0.30;;
72635;SDS011;60679;48.888;15.544;2022-12-07T01:42:18;1.98;;;0.40;;
72635;SDS011;60679;48.888;15.544;2022-12-07T01:47:45;1.83;;;0.32;;
72635;SDS011;60679;48.888;15.544;2022-12-07T01:50:14;2.10;;;0.47;;
72635;SDS011;60679;48.888;15.544;2022-12-07T01:52:40;1.77;;;0.30;;
72635;SDS011;60679;48.888;15.544;2022-12-07T01:55:09;1.80;;;0.35;;
72635;SDS011;60679;48.888;15.544;2022-12-07T01:57:39;1.80;;;0.30;;
72635;SDS011;60679;48.888;15.544;2022-12-07T02:00:08;1.85;;;0.35;;
72635;SDS011;60679;48.888;15.544;2022-12-07T02:02:36;2.17;;;0.50;;
72635;SDS011;60679;48.888;15.544;2022-12-07T02:05:06;1.77;;;0.30;;
72635;SDS011;60679;48.888;15.544;2022-12-07T02:07:32;2.30;;;0.40;;
72635;SDS011;60679;48.888;15.544;2022-12-07T02:12:47;2.40;;;0.55;;
72635;SDS011;60679;48.888;15.544;2022-12-07T02:15:16;2.05;;;0.40;;
72635;SDS011;60679;48.888;15.544;2022-12-07T02:31:33;1.70;;;0.30;;
72635;SDS011;60679;48.888;15.544;2022-12-07T02:34:05;2.35;;;0.57;;
72635;SDS011;60679;48.888;15.544;2022-12-07T02:36:37;2.03;;;0.50;;
72635;SDS011;60679;48.888;15.544;2022-12-07T02:39:14;1.60;;;0.20;;
72635;SDS011;60679;48.888;15.544;2022-12-07T02:41:46;2.38;;;0.60;;
72635;SDS011;60679;48.888;15.544;2022-12-07T02:44:20;2.03;;;0.43;;
72635;SDS011;60679;48.888;15.544;2022-12-07T02:46:52;2.00;;;0.40;;
72635;SDS011;60679;48.888;15.544;2022-12-07T02:49:21;2.23;;;0.80;;
72635;SDS011;60679;48.888;15.544;2022-12-07T02:51:48;2.08;;;0.50;;
72635;SDS011;60679;48.888;15.544;2022-12-07T02:54:15;1.93;;;0.40;;
72635;SDS011;60679;48.888;15.544;2022-12-07T02:56:52;1.67;;;0.30;;
72635;SDS011;60679;48.888;15.544;2022-12-07T03:07:59;1.80;;;0.30;;
72635;SDS011;60679;48.888;15.544;2022-12-07T03:13:50;2.00;;;0.30;;
72635;SDS011;60679;48.888;15.544;2022-12-07T03:16:33;1.88;;;0.30;;
72635;SDS011;60679;48.888;15.544;2022-12-07T03:19:11;2.05;;;0.45;;
72635;SDS011;60679;48.888;15.544;2022-12-07T03:21:41;1.80;;;0.30;;
72635;SDS011;60679;48.888;15.544;2022-12-07T03:24:12;1.83;;;0.30;;
72635;SDS011;60679;48.888;15.544;2022-12-07T03:26:47;2.10;;;0.50;;
72635;SDS011;60679;48.888;15.544;2022-12-07T03:29:22;2.10;;;0.50;;
72635;SDS011;60679;48.888;15.544;2022-12-07T03:31:54;2.08;;;0.50;;
72635;SDS011;60679;48.888;15.544;2022-12-07T03:37:23;2.20;;;0.50;;
72635;SDS011;60679;48.888;15.544;2022-12-07T03:42:44;2.05;;;0.57;;
72635;SDS011;60679;48.888;15.544;2022-12-07T03:45:11;2.13;;;0.55;;
72635;SDS011;60679;48.888;15.544;2022-12-07T03:47:41;2.33;;;0.60;;
72635;SDS011;60679;48.888;15.544;2022-12-07T03:50:19;2.08;;;0.50;;
72635;SDS011;60679;48.888;15.544;2022-12-07T03:52:53;2.45;;;0.95;;
72635;SDS011;60679;48.888;15.544;2022-12-07T03:55:29;2.67;;;0.77;;
72635;SDS011;60679;48.888;15.544;2022-12-07T03:58:02;2.00;;;0.40;;
72635;SDS011;60679;48.888;15.544;2022-12-07T04:00:31;2.07;;;0.40;;
72635;SDS011;60679;48.888;15.544;2022-12-07T04:02:57;1.90;;;0.40;;
72635;SDS011;60679;48.888;15.544;2022-12-07T04:05:23;2.20;;;0.40;;
72635;SDS011;60679;48.888;15.544;2022-12-07T04:07:48;2.20;;;1.10;;
72635;SDS011;60679;48.888;15.544;2022-12-07T04:10:14;2.08;;;0.40;;
72635;SDS011;60679;48.888;15.544;2022-12-07T04:12:39;2.20;;;0.43;;
72635;SDS011;60679;48.888;15.544;2022-12-07T04:15:05;1.93;;;0.30;;
72635;SDS011;60679;48.888;15.544;2022-12-07T04:17:31;1.98;;;0.43;;
72635;SDS011;60679;48.888;15.544;2022-12-07T04:19:57;2.43;;;0.80;;
72635;SDS011;60679;48.888;15.544;2022-12-07T04:22:22;2.33;;;0.53;;
72635;SDS011;60679;48.888;15.544;2022-12-07T04:24:47;1.70;;;0.30;;
72635;SDS011;60679;48.888;15.544;2022-12-07T04:27:13;1.90;;;0.38;;
72635;SDS011;60679;48.888;15.544;2022-12-07T04:29:38;1.95;;;0.30;;
72635;SDS011;60679;48.888;15.544;2022-12-07T04:32:04;2.27;;;0.60;;
72635;SDS011;60679;48.888;15.544;2022-12-07T04:34:29;2.27;;;0.60;;
72635;SDS011;60679;48.888;15.544;2022-12-07T04:42:05;2.60;;;0.65;;
72635;SDS011;60679;48.888;15.544;2022-12-07T04:44:30;2.43;;;0.60;;
72635;SDS011;60679;48.888;15.544;2022-12-07T04:46:56;4.82;;;1.00;;
72635;SDS011;60679;48.888;15.544;2022-12-07T04:49:22;2.33;;;0.70;;
72635;SDS011;60679;48.888;15.544;2022-12-07T04:51:48;2.72;;;1.00;;
72635;SDS011;60679;48.888;15.544;2022-12-07T04:54:14;2.07;;;0.53;;
72635;SDS011;60679;48.888;15.544;2022-12-07T04:56:40;1.73;;;0.30;;
72635;SDS011;60679;48.888;15.544;2022-12-07T04:59:06;2.20;;;0.43;;
72635;SDS011;60679;48.888;15.544;2022-12-07T05:01:31;1.90;;;0.30;;
72635;SDS011;60679;48.888;15.544;2022-12-07T05:03:57;2.22;;;0.50;;
72635;SDS011;60679;48.888;15.544;2022-12-07T05:06:23;2.20;;;0.50;;
72635;SDS011;60679;48.888;15.544;2022-12-07T05:08:49;2.15;;;0.50;;
72635;SDS011;60679;48.888;15.544;2022-12-07T05:11:15;2.13;;;0.40;;
72635;SDS011;60679;48.888;15.544;2022-12-07T05:13:59;9.27;;;1.00;;
72635;SDS011;60679;48.888;15.544;2022-12-07T05:16:25;2.15;;;0.57;;
72635;SDS011;60679;48.888;15.544;2022-12-07T05:18:51;1.92;;;0.40;;
72635;SDS011;60679;48.888;15.544;2022-12-07T05:21:16;2.00;;;0.40;;
72635;SDS011;60679;48.888;15.544;2022-12-07T05:23:42;2.63;;;0.87;;
72635;SDS011;60679;48.888;15.544;2022-12-07T05:26:07;2.50;;;0.70;;
72635;SDS011;60679;48.888;15.544;2022-12-07T05:28:32;2.03;;;0.40;;
72635;SDS011;60679;48.888;15.544;2022-12-07T05:30:58;2.67;;;1.10;;
72635;SDS011;60679;48.888;15.544;2022-12-07T05:33:23;2.00;;;0.30;;
72635;SDS011;60679;48.888;15.544;2022-12-07T05:35:48;2.40;;;0.52;;
72635;SDS011;60679;48.888;15.544;2022-12-07T05:38:14;2.90;;;0.80;;
72635;SDS011;60679;48.888;15.544;2022-12-07T05:40:39;2.03;;;0.30;;
72635;SDS011;60679;48.888;15.544;2022-12-07T05:43:05;2.20;;;0.57;;
72635;SDS011;60679;48.888;15.544;2022-12-07T05:45:30;3.80;;;1.37;;
72635;SDS011;60679;48.888;15.544;2022-12-07T05:47:55;2.30;;;0.43;;
72635;SDS011;60679;48.888;15.544;2022-12-07T05:50:21;3.17;;;1.25;;
72635;SDS011;60679;48.888;15.544;2022-12-07T05:52:46;2.33;;;0.60;;
72635;SDS011;60679;48.888;15.544;2022-12-07T05:55:11;2.43;;;0.50;;
72635;SDS011;60679;48.888;15.544;2022-12-07T05:57:37;2.60;;;0.50;;
72635;SDS011;60679;48.888;15.544;2022-12-07T06:00:03;2.20;;;0.40;;
72635;SDS011;60679;48.888;15.544;2022-12-07T06:02:29;2.15;;;0.40;;
72635;SDS011;60679;48.888;15.544;2022-12-07T06:04:55;4.37;;;1.43;;
72635;SDS011;60679;48.888;15.544;2022-12-07T06:07:20;1.97;;;0.40;;
72635;SDS011;60679;48.888;15.544;2022-12-07T06:09:45;2.30;;;0.50;;
72635;SDS011;60679;48.888;15.544;2022-12-07T06:12:11;2.80;;;0.67;;
72635;SDS011;60679;48.888;15.544;2022-12-07T06:14:56;1.75;;;0.30;;
72635;SDS011;60679;48.888;15.544;2022-12-07T06:17:22;2.35;;;0.70;;
72635;SDS011;60679;48.888;15.544;2022-12-07T06:19:48;2.10;;;0.50;;
72635;SDS011;60679;48.888;15.544;2022-12-07T06:22:13;2.80;;;0.70;;
72635;SDS011;60679;48.888;15.544;2022-12-07T06:24:39;2.67;;;0.75;;
72635;SDS011;60679;48.888;15.544;2022-12-07T06:27:05;2.05;;;0.40;;
72635;SDS011;60679;48.888;15.544;2022-12-07T06:29:31;2.03;;;0.38;;
72635;SDS011;60679;48.888;15.544;2022-12-07T06:31:57;2.20;;;0.40;;
72635;SDS011;60679;48.888;15.544;2022-12-07T06:34:22;2.50;;;0.57;;
72635;SDS011;60679;48.888;15.544;2022-12-07T06:36:49;2.03;;;0.30;;
72635;SDS011;60679;48.888;15.544;2022-12-07T06:39:18;2.22;;;0.50;;
72635;SDS011;60679;48.888;15.544;2022-12-07T06:41:44;2.30;;;0.50;;
72635;SDS011;60679;48.888;15.544;2022-12-07T06:44:10;2.70;;;0.70;;
72635;SDS011;60679;48.888;15.544;2022-12-07T06:46:35;2.40;;;0.43;;
72635;SDS011;60679;48.888;15.544;2022-12-07T06:49:01;2.75;;;0.77;;
72635;SDS011;60679;48.888;15.544;2022-12-07T06:51:27;2.25;;;0.40;;
72635;SDS011;60679;48.888;15.544;2022-12-07T06:53:53;2.60;;;0.50;;
72635;SDS011;60679;48.888;15.544;2022-12-07T06:56:18;2.17;;;0.50;;
72635;SDS011;60679;48.888;15.544;2022-12-07T06:58:44;1.93;;;0.30;;
72635;SDS011;60679;48.888;15.544;2022-12-07T07:01:10;2.20;;;0.50;;
72635;SDS011;60679;48.888;15.544;2022-12-07T07:03:36;2.53;;;0.93;;
72635;SDS011;60679;48.888;15.544;2022-12-07T07:06:02;2.47;;;0.83;;
72635;SDS011;60679;48.888;15.544;2022-12-07T07:08:27;3.03;;;0.95;;
72635;SDS011;60679;48.888;15.544;2022-12-07T07:10:53;5.07;;;1.90;;
72635;SDS011;60679;48.888;15.544;2022-12-07T07:13:18;2.30;;;0.50;;
72635;SDS011;60679;48.888;15.544;2022-12-07T07:15:43;2.30;;;0.50;;
72635;SDS011;60679;48.888;15.544;2022-12-07T07:18:09;2.33;;;0.55;;
72635;SDS011;60679;48.888;15.544;2022-12-07T07:20:35;2.33;;;0.43;;
72635;SDS011;60679;48.888;15.544;2022-12-07T07:23:00;2.80;;;1.03;;
72635;SDS011;60679;48.888;15.544;2022-12-07T07:25:26;2.17;;;0.40;;
72635;SDS011;60679;48.888;15.544;2022-12-07T07:27:51;2.40;;;0.60;;
72635;SDS011;60679;48.888;15.544;2022-12-07T07:30:16;2.13;;;0.50;;
72635;SDS011;60679;48.888;15.544;2022-12-07T07:32:42;2.13;;;0.40;;
72635;SDS011;60679;48.888;15.544;2022-12-07T07:35:07;2.30;;;0.60;;
72635;SDS011;60679;48.888;15.544;2022-12-07T07:37:33;1.70;;;0.30;;
72635;SDS011;60679;48.888;15.544;2022-12-07T07:39:59;2.20;;;0.43;;
72635;SDS011;60679;48.888;15.544;2022-12-07T07:42:24;2.23;;;0.50;;
72635;SDS011;60679;48.888;15.544;2022-12-07T07:44:49;2.50;;;0.70;;
72635;SDS011;60679;48.888;15.544;2022-12-07T07:47:15;2.33;;;0.60;;
72635;SDS011;60679;48.888;15.544;2022-12-07T07:49:40;2.15;;;0.47;;
72635;SDS011;60679;48.888;15.544;2022-12-07T07:52:05;2.25;;;0.40;;
72635;SDS011;60679;48.888;15.544;2022-12-07T07:54:31;2.33;;;0.63;;
72635;SDS011;60679;48.888;15.544;2022-12-07T07:56:57;2.27;;;0.57;;
72635;SDS011;60679;48.888;15.544;2022-12-07T07:59:22;2.13;;;0.35;;
72635;SDS011;60679;48.888;15.544;2022-12-07T08:01:47;3.27;;;1.07;;
72635;SDS011;60679;48.888;15.544;2022-12-07T08:04:13;2.23;;;0.40;;
72635;SDS011;60679;48.888;15.544;2022-12-07T08:06:38;2.00;;;0.30;;
72635;SDS011;60679;48.888;15.544;2022-12-07T08:09:03;2.23;;;0.40;;
72635;SDS011;60679;48.888;15.544;2022-12-07T08:11:30;2.10;;;0.35;;
72635;SDS011;60679;48.888;15.544;2022-12-07T08:13:56;2.43;;;0.70;;
72635;SDS011;60679;48.888;15.544;2022-12-07T08:16:21;1.95;;;0.32;;
72635;SDS011;60679;48.888;15.544;2022-12-07T08:18:47;2.10;;;0.37;;
72635;SDS011;60679;48.888;15.544;2022-12-07T08:21:13;2.43;;;0.50;;
72635;SDS011;60679;48.888;15.544;2022-12-07T08:23:40;1.70;;;0.25;;
72635;SDS011;60679;48.888;15.544;2022-12-07T08:26:07;2.13;;;0.40;;
72635;SDS011;60679;48.888;15.544;2022-12-07T08:28:35;2.15;;;0.40;;
72635;SDS011;60679;48.888;15.544;2022-12-07T08:31:02;2.20;;;0.40;;
72635;SDS011;60679;48.888;15.544;2022-12-07T08:33:29;2.30;;;0.40;;
72635;SDS011;60679;48.888;15.544;2022-12-07T08:35:54;2.27;;;0.53;;
72635;SDS011;60679;48.888;15.544;2022-12-07T08:38:19;2.27;;;0.63;;
72635;SDS011;60679;48.888;15.544;2022-12-07T08:40:52;2.40;;;0.43;;
72635;SDS011;60679;48.888;15.544;2022-12-07T08:43:19;2.40;;;0.50;;
72635;SDS011;60679;48.888;15.544;2022-12-07T08:45:44;1.90;;;0.30;;
72635;SDS011;60679;48.888;15.544;2022-12-07T08:48:10;2.43;;;0.63;;
72635;SDS011;60679;48.888;15.544;2022-12-07T08:50:39;2.40;;;0.60;;
72635;SDS011;60679;48.888;15.544;2022-12-07T08:53:04;2.47;;;0.57;;
72635;SDS011;60679;48.888;15.544;2022-12-07T08:55:31;3.10;;;0.70;;
72635;SDS011;60679;48.888;15.544;2022-12-07T08:57:58;3.20;;;0.80;;
72635;SDS011;60679;48.888;15.544;2022-12-07T09:00:25;3.30;;;0.82;;
72635;SDS011;60679;48.888;15.544;2022-12-07T09:02:51;3.30;;;0.80;;
72635;SDS011;60679;48.888;15.544;2022-12-07T09:05:17;3.50;;;1.23;;
72635;SDS011;60679;48.888;15.544;2022-12-07T09:07:43;3.30;;;0.80;;
72635;SDS011;60679;48.888;15.544;2022-12-07T09:10:12;3.60;;;0.97;;
72635;SDS011;60679;48.888;15.544;2022-12-07T09:12:37;3.20;;;0.98;;
72635;SDS011;60679;48.888;15.544;2022-12-07T09:15:03;3.30;;;0.90;;
72635;SDS011;60679;48.888;15.544;2022-12-07T09:17:31;3.57;;;1.20;;
72635;SDS011;60679;48.888;15.544;2022-12-07T09:19:58;3.20;;;0.80;;
72635;SDS011;60679;48.888;15.544;2022-12-07T09:22:23;3.40;;;1.10;;
72635;SDS011;60679;48.888;15.544;2022-12-07T09:24:49;3.40;;;1.00;;
72635;SDS011;60679;48.888;15.544;2022-12-07T09:27:14;3.40;;;1.10;;
72635;SDS011;60679;48.888;15.544;2022-12-07T09:29:41;3.70;;;1.30;;
72635;SDS011;60679;48.888;15.544;2022-12-07T09:32:06;3.53;;;1.20;;
72635;SDS011;60679;48.888;15.544;2022-12-07T09:34:32;3.37;;;0.83;;
72635;SDS011;60679;48.888;15.544;2022-12-07T09:36:57;3.60;;;1.33;;
72635;SDS011;60679;48.888;15.544;2022-12-07T09:39:23;4.25;;;1.08;;
72635;SDS011;60679;48.888;15.544;2022-12-07T09:41:48;3.50;;;1.00;;
72635;SDS011;60679;48.888;15.544;2022-12-07T09:44:17;3.10;;;0.80;;
72635;SDS011;60679;48.888;15.544;2022-12-07T09:46:46;3.40;;;1.10;;
72635;SDS011;60679;48.888;15.544;2022-12-07T09:49:19;4.03;;;1.50;;
72635;SDS011;60679;48.888;15.544;2022-12-07T09:51:59;3.42;;;1.08;;
72635;SDS011;60679;48.888;15.544;2022-12-07T09:54:26;3.70;;;1.33;;
72635;SDS011;60679;48.888;15.544;2022-12-07T09:56:52;3.97;;;1.83;;
72635;SDS011;60679;48.888;15.544;2022-12-07T09:59:18;3.53;;;1.43;;
72635;SDS011;60679;48.888;15.544;2022-12-07T10:01:44;4.28;;;1.80;;
72635;SDS011;60679;48.888;15.544;2022-12-07T10:06:50;3.50;;;1.10;;
72635;SDS011;60679;48.888;15.544;2022-12-07T10:09:17;3.70;;;1.50;;
72635;SDS011;60679;48.888;15.544;2022-12-07T10:11:57;3.92;;;1.45;;
72635;SDS011;60679;48.888;15.544;2022-12-07T10:14:23;3.75;;;1.67;;
72635;SDS011;60679;48.888;15.544;2022-12-07T10:16:48;3.50;;;1.30;;
72635;SDS011;60679;48.888;15.544;2022-12-07T10:19:22;3.50;;;1.30;;
72635;SDS011;60679;48.888;15.544;2022-12-07T10:22:09;4.00;;;1.85;;
72635;SDS011;60679;48.888;15.544;2022-12-07T10:24:37;3.35;;;0.88;;
72635;SDS011;60679;48.888;15.544;2022-12-07T10:27:18;3.47;;;1.20;;
72635;SDS011;60679;48.888;15.544;2022-12-07T10:29:55;4.07;;;1.30;;
72635;SDS011;60679;48.888;15.544;2022-12-07T10:32:28;3.65;;;1.67;;
72635;SDS011;60679;48.888;15.544;2022-12-07T10:37:41;3.83;;;1.77;;
72635;SDS011;60679;48.888;15.544;2022-12-07T10:40:23;3.77;;;1.87;;
72635;SDS011;60679;48.888;15.544;2022-12-07T10:43:02;3.95;;;1.60;;
72635;SDS011;60679;48.888;15.544;2022-12-07T10:45:29;4.00;;;2.08;;
72635;SDS011;60679;48.888;15.544;2022-12-07T10:56:06;3.97;;;1.83;;
72635;SDS011;60679;48.888;15.544;2022-12-07T11:01:17;3.85;;;1.80;;
72635;SDS011;60679;48.888;15.544;2022-12-07T11:15:15;3.80;;;1.70;;
72635;SDS011;60679;48.888;15.544;2022-12-07T11:25:41;4.03;;;2.43;;
72635;SDS011;60679;48.888;15.544;2022-12-07T11:33:29;4.40;;;2.53;;
72635;SDS011;60679;48.888;15.544;2022-12-07T11:36:16;4.13;;;2.45;;
72635;SDS011;60679;48.888;15.544;2022-12-07T11:39:03;3.30;;;0.80;;
72635;SDS011;60679;48.888;15.544;2022-12-07T11:41:37;3.47;;;1.10;;
72635;SDS011;60679;48.888;15.544;2022-12-07T11:44:12;3.10;;;0.70;;
72635;SDS011;60679;48.888;15.544;2022-12-07T11:52:09;3.50;;;0.85;;
72635;SDS011;60679;48.888;15.544;2022-12-07T11:54:43;3.13;;;0.77;;
72635;SDS011;60679;48.888;15.544;2022-12-07T11:57:13;4.00;;;2.13;;
72635;SDS011;60679;48.888;15.544;2022-12-07T12:00:05;4.10;;;2.60;;
72635;SDS011;60679;48.888;15.544;2022-12-07T12:02:58;3.60;;;1.48;;
72635;SDS011;60679;48.888;15.544;2022-12-07T12:05:29;3.50;;;0.90;;
72635;SDS011;60679;48.888;15.544;2022-12-07T12:08:03;3.83;;;1.00;;
72635;SDS011;60679;48.888;15.544;2022-12-07T12:10:44;3.35;;;0.90;;
72635;SDS011;60679;48.888;15.544;2022-12-07T12:13:28;3.83;;;1.20;;
72635;SDS011;60679;48.888;15.544;2022-12-07T12:21:30;2.90;;;0.60;;
72635;SDS011;60679;48.888;15.544;2022-12-07T12:24:04;4.47;;;1.10;;
72635;SDS011;60679;48.888;15.544;2022-12-07T12:26:36;3.15;;;1.05;;
72635;SDS011;60679;48.888;15.544;2022-12-07T12:29:05;2.70;;;0.70;;
72635;SDS011;60679;48.888;15.544;2022-12-07T12:31:46;2.80;;;0.60;;
72635;SDS011;60679;48.888;15.544;2022-12-07T12:42:52;2.50;;;0.50;;
72635;SDS011;60679;48.888;15.544;2022-12-07T12:45:29;3.22;;;0.90;;
72635;SDS011;60679;48.888;15.544;2022-12-07T12:50:29;3.25;;;1.10;;
72635;SDS011;60679;48.888;15.544;2022-12-07T13:01:54;2.70;;;0.60;;
72635;SDS011;60679;48.888;15.544;2022-12-07T13:04:00;2.60;;;0.52;;
72635;SDS011;60679;48.888;15.544;2022-12-07T13:08:52;3.07;;;0.83;;
72635;SDS011;60679;48.888;15.544;2022-12-07T13:13:50;2.58;;;0.57;;
72635;SDS011;60679;48.888;15.544;2022-12-07T13:18:41;3.67;;;0.93;;
72635;SDS011;60679;48.888;15.544;2022-12-07T13:26:23;2.15;;;0.40;;
72635;SDS011;60679;48.888;15.544;2022-12-07T13:31:35;4.22;;;1.15;;
72635;SDS011;60679;48.888;15.544;2022-12-07T13:34:04;2.88;;;0.88;;
72635;SDS011;60679;48.888;15.544;2022-12-07T13:36:49;4.73;;;0.90;;
72635;SDS011;60679;48.888;15.544;2022-12-07T13:39:20;2.00;;;0.30;;
72635;SDS011;60679;48.888;15.544;2022-12-07T13:41:54;2.67;;;0.80;;
72635;SDS011;60679;48.888;15.544;2022-12-07T13:44:25;2.53;;;0.57;;
72635;SDS011;60679;48.888;15.544;2022-12-07T13:49:24;5.83;;;1.33;;
72635;SDS011;60679;48.888;15.544;2022-12-07T13:52:23;2.75;;;0.80;;
72635;SDS011;60679;48.888;15.544;2022-12-07T13:54:59;2.75;;;0.70;;
72635;SDS011;60679;48.888;15.544;2022-12-07T13:57:27;2.03;;;0.38;;
72635;SDS011;60679;48.888;15.544;2022-12-07T13:59:55;2.47;;;0.55;;
72635;SDS011;60679;48.888;15.544;2022-12-07T14:10:26;2.45;;;0.52;;
72635;SDS011;60679;48.888;15.544;2022-12-07T14:12:53;2.13;;;0.40;;
72635;SDS011;60679;48.888;15.544;2022-12-07T14:15:20;1.70;;;0.30;;
72635;SDS011;60679;48.888;15.544;2022-12-07T14:17:52;2.03;;;0.50;;
72635;SDS011;60679;48.888;15.544;2022-12-07T14:24:01;1.95;;;0.40;;
72635;SDS011;60679;48.888;15.544;2022-12-07T14:28:38;1.98;;;0.40;;
72635;SDS011;60679;48.888;15.544;2022-12-07T14:31:07;1.70;;;0.30;;
72635;SDS011;60679;48.888;15.544;2022-12-07T14:33:39;1.98;;;0.50;;
72635;SDS011;60679;48.888;15.544;2022-12-07T14:36:05;2.60;;;0.80;;
72635;SDS011;60679;48.888;15.544;2022-12-07T14:38:31;2.50;;;0.70;;
72635;SDS011;60679;48.888;15.544;2022-12-07T14:40:56;5.30;;;0.93;;
72635;SDS011;60679;48.888;15.544;2022-12-07T14:43:42;2.50;;;0.88;;
72635;SDS011;60679;48.888;15.544;2022-12-07T14:46:08;2.20;;;0.60;;
72635;SDS011;60679;48.888;15.544;2022-12-07T14:48:34;2.00;;;0.47;;
72635;SDS011;60679;48.888;15.544;2022-12-07T14:50:59;2.23;;;0.50;;
72635;SDS011;60679;48.888;15.544;2022-12-07T14:53:27;1.80;;;0.30;;
72635;SDS011;60679;48.888;15.544;2022-12-07T14:55:58;2.47;;;0.82;;
72635;SDS011;60679;48.888;15.544;2022-12-07T14:58:23;2.03;;;0.40;;
72635;SDS011;60679;48.888;15.544;2022-12-07T15:00:49;2.20;;;0.50;;
72635;SDS011;60679;48.888;15.544;2022-12-07T15:03:14;2.00;;;0.40;;
72635;SDS011;60679;48.888;15.544;2022-12-07T15:05:40;1.73;;;0.30;;
72635;SDS011;60679;48.888;15.544;2022-12-07T15:08:06;2.05;;;0.50;;
72635;SDS011;60679;48.888;15.544;2022-12-07T15:10:34;1.77;;;0.30;;
72635;SDS011;60679;48.888;15.544;2022-12-07T15:13:03;2.33;;;0.55;;
72635;SDS011;60679;48.888;15.544;2022-12-07T15:15:48;2.53;;;0.63;;
72635;SDS011;60679;48.888;15.544;2022-12-07T15:18:15;2.03;;;0.50;;
72635;SDS011;60679;48.888;15.544;2022-12-07T15:20:42;3.63;;;0.93;;
72635;SDS011;60679;48.888;15.544;2022-12-07T15:23:07;8.63;;;1.80;;
72635;SDS011;60679;48.888;15.544;2022-12-07T15:25:33;2.00;;;0.40;;
72635;SDS011;60679;48.888;15.544;2022-12-07T15:27:58;2.30;;;0.70;;
72635;SDS011;60679;48.888;15.544;2022-12-07T15:30:24;2.15;;;0.40;;
72635;SDS011;60679;48.888;15.544;2022-12-07T15:32:50;2.00;;;0.47;;
72635;SDS011;60679;48.888;15.544;2022-12-07T15:35:16;2.50;;;0.80;;
72635;SDS011;60679;48.888;15.544;2022-12-07T15:37:41;2.80;;;0.80;;
72635;SDS011;60679;48.888;15.544;2022-12-07T15:40:07;2.43;;;0.60;;
72635;SDS011;60679;48.888;15.544;2022-12-07T15:42:32;2.28;;;0.60;;
72635;SDS011;60679;48.888;15.544;2022-12-07T15:44:58;1.70;;;0.30;;
72635;SDS011;60679;48.888;15.544;2022-12-07T15:47:30;2.55;;;0.65;;
72635;SDS011;60679;48.888;15.544;2022-12-07T15:50:01;2.33;;;0.52;;
72635;SDS011;60679;48.888;15.544;2022-12-07T15:52:28;2.10;;;0.40;;
72635;SDS011;60679;48.888;15.544;2022-12-07T15:54:53;2.20;;;0.50;;
72635;SDS011;60679;48.888;15.544;2022-12-07T15:57:19;1.90;;;0.30;;
72635;SDS011;60679;48.888;15.544;2022-12-07T15:59:44;1.60;;;0.20;;
72635;SDS011;60679;48.888;15.544;2022-12-07T16:02:09;1.90;;;0.40;;
72635;SDS011;60679;48.888;15.544;2022-12-07T16:04:35;2.33;;;0.60;;
72635;SDS011;60679;48.888;15.544;2022-12-07T16:07:01;2.33;;;0.88;;
72635;SDS011;60679;48.888;15.544;2022-12-07T16:09:27;2.67;;;0.82;;
72635;SDS011;60679;48.888;15.544;2022-12-07T16:11:53;2.00;;;0.40;;
72635;SDS011;60679;48.888;15.544;2022-12-07T16:14:19;1.73;;;0.30;;
72635;SDS011;60679;48.888;15.544;2022-12-07T16:16:45;2.20;;;0.60;;
72635;SDS011;60679;48.888;15.544;2022-12-07T16:19:10;2.57;;;1.13;;
72635;SDS011;60679;48.888;15.544;2022-12-07T16:21:36;2.17;;;0.40;;
72635;SDS011;60679;48.888;15.544;2022-12-07T16:24:02;1.70;;;0.30;;
72635;SDS011;60679;48.888;15.544;2022-12-07T16:26:28;2.47;;;0.70;;
72635;SDS011;60679;48.888;15.544;2022-12-07T16:28:53;2.43;;;0.73;;
72635;SDS011;60679;48.888;15.544;2022-12-07T16:31:21;1.95;;;0.40;;
72635;SDS011;60679;48.888;15.544;2022-12-07T16:33:48;2.17;;;0.55;;
72635;SDS011;60679;48.888;15.544;2022-12-07T16:36:15;1.63;;;0.20;;
72635;SDS011;60679;48.888;15.544;2022-12-07T16:38:41;2.63;;;0.68;;
72635;SDS011;60679;48.888;15.544;2022-12-07T16:41:08;2.33;;;0.50;;
72635;SDS011;60679;48.888;15.544;2022-12-07T16:43:34;1.77;;;0.40;;
72635;SDS011;60679;48.888;15.544;2022-12-07T16:46:00;2.00;;;0.38;;
72635;SDS011;60679;48.888;15.544;2022-12-07T16:48:26;1.80;;;0.30;;
72635;SDS011;60679;48.888;15.544;2022-12-07T16:50:51;1.70;;;0.30;;
72635;SDS011;60679;48.888;15.544;2022-12-07T16:53:19;2.03;;;0.40;;
72635;SDS011;60679;48.888;15.544;2022-12-07T16:55:45;2.78;;;0.88;;
72635;SDS011;60679;48.888;15.544;2022-12-07T16:58:11;1.75;;;0.30;;
72635;SDS011;60679;48.888;15.544;2022-12-07T17:00:38;2.58;;;0.73;;
72635;SDS011;60679;48.888;15.544;2022-12-07T17:03:04;2.25;;;0.50;;
72635;SDS011;60679;48.888;15.544;2022-12-07T17:05:30;2.05;;;0.40;;